Time;durP1;ratioP1;P1;durP2;ratioP2;P2;SDS_P1;SDS_P2;PMS_P1;PMS_P2;Temp;Humidity;BMP_temperature;BMP_pressure;BME280_temperature;BME280_humidity;BME280_pressure;Samples;Min_cycle;Max_cycle;Signal;HPM_P1;HPM_P2
2021/10/06 00:02:03;;;;;;;22.60;12.93;;;;;;;8.23;62.29;102092.83;1720145;81;20999;-65
2021/10/06 00:04:29;;;;;;;26.70;13.70;;;;;;;8.21;62.40;102094.75;1714847;82;21002;-63
2021/10/06 00:06:55;;;;;;;23.47;13.10;;;;;;;8.18;62.67;102091.05;1697416;82;21010;-66
2021/10/06 00:09:21;;;;;;;24.40;14.07;;;;;;;8.14;62.73;102093.61;1709538;82;21037;-65
2021/10/06 00:11:47;;;;;;;27.35;14.15;;;;;;;8.10;62.89;102091.69;1716968;81;21164;-62
2021/10/06 00:14:14;;;;;;;50.77;18.23;;;;;;;8.12;63.12;102090.24;1716830;82;21019;-63
2021/10/06 00:16:40;;;;;;;32.95;13.72;;;;;;;8.18;62.84;102081.75;1719401;82;20972;-64
2021/10/06 00:19:07;;;;;;;15.08;11.40;;;;;;;8.21;62.94;102091.26;1705518;82;21027;-64
2021/10/06 00:21:34;;;;;;;36.87;16.40;;;;;;;8.16;63.05;102087.67;1702322;82;20956;-63
2021/10/06 00:24:00;;;;;;;19.57;11.90;;;;;;;8.12;63.21;102092.41;1723005;81;20950;-63
2021/10/06 00:26:26;;;;;;;16.95;11.95;;;;;;;8.11;63.17;102092.03;1721108;82;21073;-62
2021/10/06 00:28:52;;;;;;;14.87;11.57;;;;;;;8.07;63.24;102094.59;1717734;83;21532;-64
2021/10/06 00:31:18;;;;;;;17.82;12.65;;;;;;;8.04;63.31;102098.83;1719609;82;21022;-63
2021/10/06 00:33:45;;;;;;;18.48;12.98;;;;;;;7.99;63.49;102093.08;1701767;81;21588;-64
2021/10/06 00:36:11;;;;;;;40.20;15.13;;;;;;;7.94;63.58;102091.28;1703179;82;21509;-62
2021/10/06 00:38:38;;;;;;;23.12;13.08;;;;;;;7.94;63.74;102092.12;1697188;82;21031;-67
2021/10/06 00:41:05;;;;;;;24.27;12.83;;;;;;;8.03;63.78;102092.34;1691727;82;21325;-64
2021/10/06 00:43:32;;;;;;;30.20;15.47;;;;;;;8.04;63.68;102092.68;1717325;83;20991;-61
2021/10/06 00:45:58;;;;;;;17.52;10.90;;;;;;;7.97;63.93;102089.72;1716936;82;20968;-65
2021/10/06 00:48:24;;;;;;;12.20;10.90;;;;;;;7.92;64.07;102092.73;1711516;82;21020;-70
2021/10/06 00:50:50;;;;;;;29.80;14.83;;;;;;;7.88;64.15;102086.00;1704573;82;20988;-65
2021/10/06 00:53:16;;;;;;;17.00;11.20;;;;;;;7.83;64.29;102094.83;1717721;82;20976;-64
2021/10/06 00:55:43;;;;;;;24.87;12.53;;;;;;;7.78;64.43;102089.08;1714628;78;21112;-68
2021/10/06 00:58:09;;;;;;;23.55;12.20;;;;;;;7.75;64.66;102098.61;1705007;82;21004;-68
2021/10/06 01:00:35;;;;;;;72.72;19.42;;;;;;;7.76;64.66;102100.28;1696891;82;20941;-66
2021/10/06 01:03:02;;;;;;;29.00;13.30;;;;;;;7.82;64.67;102104.23;1702737;83;21040;-68
2021/10/06 01:05:30;;;;;;;17.67;11.63;;;;;;;7.83;64.82;102108.09;1709524;82;21278;-63
2021/10/06 01:07:58;;;;;;;19.80;11.80;;;;;;;7.78;64.93;102106.33;1715881;82;21603;-66
2021/10/06 01:10:24;;;;;;;20.97;11.67;;;;;;;7.74;65.04;102104.87;1706925;82;20989;-64
2021/10/06 01:12:51;;;;;;;17.80;10.55;;;;;;;7.71;65.09;102102.48;1718121;79;20956;-67
2021/10/06 01:15:17;;;;;;;14.38;10.93;;;;;;;7.67;65.17;102104.55;1721693;82;21080;-62
2021/10/06 01:17:44;;;;;;;18.30;10.80;;;;;;;7.62;65.45;102101.42;1703922;82;21092;-64
2021/10/06 01:20:11;;;;;;;12.68;9.73;;;;;;;7.60;65.55;102100.22;1692935;83;21032;-63
2021/10/06 01:22:37;;;;;;;14.38;10.48;;;;;;;7.64;65.60;102100.81;1713344;81;21036;-64
2021/10/06 01:25:06;;;;;;;;;;;;;;;7.62;65.62;102097.44;1712143;83;21077;-62
2021/10/06 01:27:36;;;;;;;15.13;12.17;;;;;;;7.55;65.80;102099.77;1726345;82;20118;-64
2021/10/06 01:30:05;;;;;;;17.53;11.60;;;;;;;7.44;66.39;102101.59;1722120;82;21052;-65
2021/10/06 01:32:38;;;;;;;17.50;12.23;;;;;;;7.41;66.37;102111.98;1704590;82;20976;-66
2021/10/06 01:35:08;;;;;;;18.40;11.80;;;;;;;7.37;66.98;102101.27;1706439;81;20960;-65
2021/10/06 01:37:35;;;;;;;26.60;12.53;;;;;;;7.30;67.40;102110.67;1718422;83;21851;-66
2021/10/06 01:40:07;;;;;;;14.80;10.32;;;;;;;7.33;67.23;102106.46;1705533;83;22201;-67
2021/10/06 01:42:33;;;;;;;24.40;12.17;;;;;;;7.40;66.93;102107.63;1721078;82;21016;-64
2021/10/06 01:45:00;;;;;;;19.87;12.18;;;;;;;7.43;66.94;102106.06;1710791;79;21028;-64
2021/10/06 01:47:27;;;;;;;11.10;9.98;;;;;;;7.40;67.12;102104.52;1707821;82;21075;-66
2021/10/06 01:49:55;;;;;;;15.67;10.73;;;;;;;7.37;67.42;102109.22;1694115;82;21171;-66
2021/10/06 01:52:23;;;;;;;20.57;10.77;;;;;;;7.35;67.25;102103.20;1692829;83;21562;-62
2021/10/06 01:54:52;;;;;;;18.13;10.90;;;;;;;7.34;67.22;102109.45;1715369;82;20953;-63
2021/10/06 01:57:19;;;;;;;13.67;9.30;;;;;;;7.29;67.50;102107.65;1696174;79;21008;-66
2021/10/06 01:59:47;;;;;;;9.88;8.20;;;;;;;7.31;67.59;102109.69;1712101;83;21096;-66
2021/10/06 02:02:14;;;;;;;10.90;9.33;;;;;;;7.36;67.47;102113.66;1696197;80;20950;-67
2021/10/06 02:04:40;;;;;;;11.73;10.13;;;;;;;7.38;67.44;102112.22;1692514;83;21556;-63
2021/10/06 02:07:06;;;;;;;10.93;9.00;;;;;;;7.34;67.55;102114.77;1662224;84;20989;-65
2021/10/06 02:09:32;;;;;;;13.18;9.65;;;;;;;7.30;67.88;102106.70;1721962;82;21442;-64
2021/10/06 02:11:58;;;;;;;11.48;9.08;;;;;;;7.24;67.91;102111.17;1699082;81;20997;-64
2021/10/06 02:14:24;;;;;;;13.10;9.45;;;;;;;7.19;68.34;102120.81;1693683;82;21093;-65
2021/10/06 02:16:50;;;;;;;12.37;9.05;;;;;;;7.15;68.45;102121.53;1713560;82;21041;-63
2021/10/06 02:19:16;;;;;;;14.90;9.53;;;;;;;7.18;68.55;102112.02;1713189;83;21373;-64
2021/10/06 02:21:42;;;;;;;13.62;8.93;;;;;;;7.18;68.61;102120.47;1710528;82;21021;-65
2021/10/06 02:24:08;;;;;;;18.52;10.45;;;;;;;7.14;68.69;102121.66;1715944;79;20958;-64
2021/10/06 02:26:35;;;;;;;20.23;9.83;;;;;;;7.10;69.07;102122.41;1693230;82;20939;-66
2021/10/06 02:29:01;;;;;;;19.48;10.65;;;;;;;7.10;69.07;102122.41;1713755;82;21014;-66
2021/10/06 02:31:27;;;;;;;17.12;9.78;;;;;;;7.10;68.87;102130.81;1693355;82;21070;-64
2021/10/06 02:33:53;;;;;;;19.25;9.73;;;;;;;7.12;68.90;102130.22;1692763;82;20947;-68
2021/10/06 02:36:19;;;;;;;21.10;10.98;;;;;;;7.17;68.92;102126.72;1720457;83;21014;-65
2021/10/06 02:38:45;;;;;;;18.95;9.88;;;;;;;7.22;68.92;102133.84;1720386;82;20980;-65
2021/10/06 02:41:11;;;;;;;16.42;10.30;;;;;;;7.20;69.07;102131.80;1701404;82;21011;-66
2021/10/06 02:43:38;;;;;;;27.60;12.23;;;;;;;7.16;69.25;102135.17;1705897;83;20956;-64
2021/10/06 02:46:04;;;;;;;11.10;9.38;;;;;;;7.12;69.58;102139.03;1728428;81;20991;-63
2021/10/06 02:48:30;;;;;;;18.32;11.90;;;;;;;7.06;69.95;102134.19;1728546;82;21447;-66
2021/10/06 02:50:57;;;;;;;13.10;9.78;;;;;;;7.02;69.90;102146.02;1708122;82;21053;-65
2021/10/06 02:53:23;;;;;;;13.00;9.20;;;;;;;7.07;69.75;102142.53;1729760;82;21058;-64
2021/10/06 02:55:49;;;;;;;10.65;8.98;;;;;;;7.12;69.69;102144.34;1721566;82;20984;-68
2021/10/06 02:58:15;;;;;;;15.38;10.28;;;;;;;7.13;69.73;102146.01;1701775;82;20988;-64
2021/10/06 03:00:41;;;;;;;14.28;10.88;;;;;;;7.07;70.05;102155.78;1714241;82;20939;-66
2021/10/06 03:03:07;;;;;;;12.98;10.72;;;;;;;7.01;70.18;102154.95;1693266;82;20963;-65
2021/10/06 03:05:34;;;;;;;15.80;10.03;;;;;;;6.98;70.22;102161.80;1713426;82;20975;-65
2021/10/06 03:07:59;;;;;;;14.25;9.55;;;;;;;6.96;70.34;102158.44;1693132;82;20943;-63
2021/10/06 03:10:26;;;;;;;10.32;9.23;;;;;;;7.01;70.41;102161.09;1717903;82;21033;-67
2021/10/06 03:12:51;;;;;;;18.50;10.00;;;;;;;7.01;70.47;102162.41;1706105;82;20954;-67
2021/10/06 03:15:18;;;;;;;10.60;8.80;;;;;;;6.95;70.60;102164.23;1707166;82;21018;-67
2021/10/06 03:17:44;;;;;;;13.25;8.38;;;;;;;6.91;70.82;102165.89;1697749;82;21063;-63
2021/10/06 03:20:12;;;;;;;11.73;9.33;;;;;;;6.86;70.83;102166.27;1694381;82;21010;-67
2021/10/06 03:22:38;;;;;;;11.83;9.10;;;;;;;6.87;70.92;102170.59;1721852;80;20966;-66
2021/10/06 03:25:05;;;;;;;12.18;8.23;;;;;;;6.92;70.93;102175.05;1722544;83;21094;-66
2021/10/06 03:27:32;;;;;;;11.63;8.50;;;;;;;6.94;70.79;102169.64;1698474;82;21788;-69
2021/10/06 03:29:59;;;;;;;10.70;8.70;;;;;;;6.92;70.87;102172.89;1702747;83;20950;-64
2021/10/06 03:32:25;;;;;;;10.35;9.28;;;;;;;6.87;71.12;102176.37;1692800;82;21063;-67
2021/10/06 03:34:51;;;;;;;15.40;10.05;;;;;;;6.82;71.27;102182.89;1704428;83;21881;-64
2021/10/06 03:37:17;;;;;;;13.53;10.13;;;;;;;6.76;71.47;102180.72;1701587;82;21094;-67
2021/10/06 03:39:43;;;;;;;11.43;8.80;;;;;;;6.75;71.46;102179.02;1721634;83;20966;-64
2021/10/06 03:42:09;;;;;;;11.90;9.30;;;;;;;6.80;71.59;102176.86;1701973;83;21093;-65
2021/10/06 03:44:35;;;;;;;13.15;10.70;;;;;;;6.83;71.53;102183.23;1695115;82;21108;-63
2021/10/06 03:47:02;;;;;;;13.93;10.32;;;;;;;6.80;71.76;102182.16;1707590;83;20982;-66
2021/10/06 03:49:28;;;;;;;14.23;10.60;;;;;;;6.75;71.83;102182.98;1703305;83;21073;-64
2021/10/06 03:51:54;;;;;;;13.10;10.32;;;;;;;6.71;71.92;102179.38;1719860;83;21082;-64
2021/10/06 03:56:13;;;;;;;17.13;9.53;;;;;;;6.65;72.63;102176.72;1748934;79;22265;-64
2021/10/06 03:58:39;;;;;;;15.68;9.05;;;;;;;6.62;72.57;102179.59;1671861;84;21282;-64
2021/10/06 04:01:05;;;;;;;13.90;9.03;;;;;;;6.64;72.59;102175.02;1675724;84;21187;-64
2021/10/06 04:03:32;;;;;;;21.93;11.00;;;;;;;6.65;72.67;102171.88;1681422;84;21071;-66
2021/10/06 04:05:58;;;;;;;16.52;10.60;;;;;;;6.62;73.12;102172.97;1681132;84;21066;-66
2021/10/06 04:08:25;;;;;;;15.13;9.45;;;;;;;6.56;73.29;102174.77;1681270;84;21129;-67
2021/10/06 04:10:51;;;;;;;13.35;8.68;;;;;;;6.52;73.52;102182.59;1680891;84;21050;-66
2021/10/06 04:13:17;;;;;;;15.53;8.18;;;;;;;6.54;73.50;102183.32;1674448;82;21078;-64
2021/10/06 04:15:43;;;;;;;13.13;10.50;;;;;;;6.60;73.56;102188.98;1673481;84;21067;-64
2021/10/06 04:18:10;;;;;;;15.40;8.85;;;;;;;6.66;73.47;102196.11;1674333;85;21063;-65
2021/10/06 04:20:36;;;;;;;14.47;9.33;;;;;;;6.64;73.51;102201.52;1670435;84;21103;-65
2021/10/06 04:23:03;;;;;;;14.18;9.55;;;;;;;6.51;73.81;102191.00;1671934;84;21153;-66
2021/10/06 04:25:30;;;;;;;9.50;8.50;;;;;;;6.74;73.96;102206.50;1666415;85;21118;-65
2021/10/06 04:27:56;;;;;;;12.50;9.18;;;;;;;7.04;73.43;102199.77;1659931;86;21603;-67
2021/10/06 04:30:22;;;;;;;14.00;9.10;;;;;;;7.41;72.81;102198.20;1648819;85;21058;-67
2021/10/06 04:32:49;;;;;;;11.13;9.27;;;;;;;7.78;71.51;102201.90;1664821;85;21077;-66
2021/10/06 04:35:15;;;;;;;10.58;9.45;;;;;;;8.12;70.48;102198.65;1709266;83;21040;-66
2021/10/06 04:37:42;;;;;;;11.97;9.08;;;;;;;8.49;69.33;102199.58;1708063;83;21565;-68
2021/10/06 04:40:09;;;;;;;10.88;9.08;;;;;;;8.90;67.96;102199.70;1684286;83;21058;-68
2021/10/06 04:42:38;;;;;;;9.60;8.60;;;;;;;9.29;65.13;102207.38;1710565;83;21021;-65
2021/10/06 04:45:06;;;;;;;13.25;9.28;;;;;;;9.50;64.02;102198.00;1716023;83;20999;-67
2021/10/06 04:47:32;;;;;;;12.10;9.40;;;;;;;9.70;63.89;102208.22;1701008;83;20978;-66
2021/10/06 04:49:58;;;;;;;15.35;10.20;;;;;;;9.92;62.58;102200.45;1703264;83;20962;-65
2021/10/06 04:52:26;;;;;;;12.67;9.50;;;;;;;10.15;62.76;102208.19;1700143;83;21013;-66
2021/10/06 04:54:53;;;;;;;10.13;9.08;;;;;;;10.37;61.81;102175.62;1711539;83;21021;-67
2021/10/06 04:57:21;;;;;;;10.30;9.20;;;;;;;11.06;59.43;102208.66;1678007;84;20971;-67
2021/10/06 04:59:47;;;;;;;10.85;8.13;;;;;;;11.47;58.69;102216.34;1697358;84;21012;-68
2021/10/06 05:02:13;;;;;;;15.20;10.45;;;;;;;11.79;57.48;102206.55;1665400;83;21162;-69
2021/10/06 05:04:39;;;;;;;8.73;7.55;;;;;;;12.15;56.25;102219.11;1666693;85;21013;-68
2021/10/06 05:07:06;;;;;;;27.95;9.93;;;;;;;12.53;55.11;102215.28;1654923;85;21006;-66
2021/10/06 05:09:32;;;;;;;11.20;8.35;;;;;;;12.82;53.01;102219.50;1668486;85;20931;-68
2021/10/06 05:11:58;;;;;;;13.70;9.23;;;;;;;12.87;52.75;102219.87;1676731;83;21054;-65
2021/10/06 05:14:24;;;;;;;14.98;8.53;;;;;;;12.99;53.14;102219.09;1708565;83;20999;-68
2021/10/06 05:16:52;;;;;;;10.93;8.68;;;;;;;13.24;52.44;102217.38;1711318;83;20954;-67
2021/10/06 05:19:20;;;;;;;16.17;10.13;;;;;;;13.55;51.45;102213.70;1719855;83;20973;-67
2021/10/06 05:21:46;;;;;;;11.68;9.75;;;;;;;13.77;51.14;102218.14;1698867;82;21543;-69
2021/10/06 05:24:12;;;;;;;12.07;8.88;;;;;;;14.13;50.50;102221.39;1711261;83;20986;-66
2021/10/06 05:26:38;;;;;;;12.33;8.23;;;;;;;14.53;49.20;102212.18;1688748;83;20971;-67
2021/10/06 05:29:04;;;;;;;9.58;8.28;;;;;;;14.80;48.45;102212.34;1712918;83;21461;-68
2021/10/06 05:31:32;;;;;;;20.77;10.13;;;;;;;14.88;47.11;102206.97;1706679;83;21628;-67
2021/10/06 05:33:58;;;;;;;;;;;;;;;14.67;48.08;102216.87;1714081;83;21894;-67
2021/10/06 05:36:24;;;;;;;17.40;9.15;;;;;;;14.72;47.97;102224.44;1707493;83;20155;-68
2021/10/06 05:38:51;;;;;;;15.25;8.95;;;;;;;14.91;47.79;102225.41;1707168;83;21539;-67
2021/10/06 05:41:17;;;;;;;9.08;7.70;;;;;;;15.24;47.13;102228.02;1691679;83;21038;-67
2021/10/06 05:43:43;;;;;;;11.40;8.00;;;;;;;15.55;46.46;102222.67;1697327;83;20969;-67
2021/10/06 05:46:09;;;;;;;;;;;;;;;15.87;45.35;102225.41;1704780;83;21122;-69
2021/10/06 05:48:36;;;;;;;17.35;8.93;;;;;;;16.18;44.82;102214.61;1684453;84;20116;-67
2021/10/06 05:51:02;;;;;;;11.03;8.13;;;;;;;16.33;44.29;102213.30;1696781;83;21042;-69
2021/10/06 05:53:28;;;;;;;18.02;8.53;;;;;;;16.27;43.98;102222.92;1703242;83;20979;-68
2021/10/06 05:55:55;;;;;;;17.52;10.30;;;;;;;16.27;44.24;102216.72;1693204;83;21047;-68
2021/10/06 05:58:23;;;;;;;25.23;13.68;;;;;;;16.40;44.38;102216.11;1679030;83;20966;-70
2021/10/06 06:00:49;;;;;;;17.37;10.63;;;;;;;16.56;43.71;102220.02;1687413;83;20986;-67
2021/10/06 06:03:15;;;;;;;17.73;10.15;;;;;;;16.53;43.68;102214.47;1704188;83;20927;-69
2021/10/06 06:05:41;;;;;;;34.75;13.53;;;;;;;16.54;43.67;102220.71;1702417;83;20983;-71
2021/10/06 06:08:08;;;;;;;;;;;;;;;16.40;43.75;102216.11;1678881;83;20962;-71
2021/10/06 06:10:34;;;;;;;26.70;10.37;;;;;;;16.24;44.30;102213.89;1689236;83;20152;-71
2021/10/06 06:13:02;;;;;;;10.05;8.60;;;;;;;16.23;44.36;102219.44;1699582;84;21847;-69
2021/10/06 06:15:30;;;;;;;13.70;9.25;;;;;;;15.75;44.71;102217.73;1675129;84;21448;-68
2021/10/06 06:17:56;;;;;;;14.03;8.88;;;;;;;15.09;46.20;102217.66;1675761;84;20993;-68
2021/10/06 06:20:26;;;;;;;30.75;11.85;;;;;;;14.42;47.78;102224.08;1675504;83;20994;-66
2021/10/06 06:22:55;;;;;;;17.50;10.48;;;;;;;13.59;50.20;102231.64;1675369;82;21051;-69
2021/10/06 06:25:22;;;;;;;24.90;12.20;;;;;;;12.91;52.12;102232.44;1675966;84;21041;-67
2021/10/06 06:27:48;;;;;;;18.95;11.57;;;;;;;12.35;53.75;102234.00;1695550;83;20974;-66
2021/10/06 06:30:15;;;;;;;22.55;12.78;;;;;;;12.04;54.71;102230.89;1692954;84;20998;-65
2021/10/06 06:32:42;;;;;;;23.75;11.15;;;;;;;11.85;55.47;102234.50;1701341;83;20994;-72
2021/10/06 06:35:10;;;;;;;42.08;16.60;;;;;;;11.71;56.04;102230.48;1656230;84;21510;-64
2021/10/06 06:37:36;;;;;;;62.73;21.02;;;;;;;11.45;58.08;102241.02;1651341;86;21844;-67
2021/10/06 06:40:05;;;;;;;57.78;18.98;;;;;;;11.18;59.22;102237.84;1653858;86;21518;-68
2021/10/06 06:42:31;;;;;;;67.40;20.35;;;;;;;10.96;60.35;102245.69;1655449;86;21011;-67
2021/10/06 06:44:57;;;;;;;;;;;;;;;10.86;60.25;102237.71;1648022;86;21034;-68
2021/10/06 06:47:23;;;;;;;47.17;16.10;;;;;;;10.84;61.10;102234.34;1647233;84;20124;-69
2021/10/06 06:49:50;;;;;;;52.58;16.20;;;;;;;10.74;61.42;102241.51;1643910;85;20949;-68
2021/10/06 06:52:16;;;;;;;54.13;16.35;;;;;;;10.77;61.37;102237.23;1645493;85;20999;-72
2021/10/06 06:54:42;;;;;;;38.95;14.45;;;;;;;10.77;61.21;102231.40;1649727;86;21010;-67
2021/10/06 06:57:09;;;;;;;35.90;13.80;;;;;;;10.66;61.70;102231.09;1662611;84;20973;-68
2021/10/06 06:59:35;;;;;;;41.33;14.00;;;;;;;10.49;62.33;102224.65;1670918;84;20989;-69
2021/10/06 07:02:01;;;;;;;59.00;18.00;;;;;;;10.54;62.32;102226.87;1662629;84;20957;-68
2021/10/06 07:04:27;;;;;;;;;;;;;;;10.55;61.89;102229.05;1664156;85;21018;-64
2021/10/06 07:06:56;;;;;;;34.03;13.30;;;;;;;10.52;62.55;102238.17;1663224;85;20430;-65
2021/10/06 07:09:25;;;;;;;44.40;15.73;;;;;;;10.54;62.31;102229.55;1662735;85;20974;-66
2021/10/06 07:11:52;;;;;;;37.63;14.73;;;;;;;10.65;62.40;102229.89;1662312;83;20978;-65
2021/10/06 07:14:19;;;;;;;19.47;10.23;;;;;;;10.68;62.23;102231.78;1663461;86;20990;-69
2021/10/06 07:16:45;;;;;;;;;;;;;;;10.65;61.83;102229.89;1650014;86;20995;-67
2021/10/06 07:19:11;;;;;;;32.17;11.93;;;;;;;10.61;62.14;102230.66;1649413;86;20161;-69
2021/10/06 07:21:43;;;;;;;24.67;10.27;;;;;;;10.56;62.02;102220.08;1642217;86;21021;-67
2021/10/06 07:24:07;;;;;;;23.23;11.83;;;;;;;10.60;61.88;102235.63;1685761;84;20981;-68
2021/10/06 07:26:34;;;;;;;28.07;13.17;;;;;;;10.60;62.01;102232.97;1668579;84;20990;-67
2021/10/06 07:29:00;;;;;;;56.63;18.00;;;;;;;10.62;61.98;102232.33;1681187;85;21020;-70
2021/10/06 07:31:26;;;;;;;76.42;20.40;;;;;;;10.73;62.09;102239.84;1692089;84;21529;-67
2021/10/06 07:33:52;;;;;;;69.95;19.02;;;;;;;10.75;61.61;102243.20;1691349;83;20961;-67
2021/10/06 07:36:18;;;;;;;53.25;17.45;;;;;;;10.79;61.05;102245.43;1683360;84;21001;-68
2021/10/06 07:38:44;;;;;;;57.03;18.23;;;;;;;10.85;60.69;102227.55;1680767;84;20957;-68
2021/10/06 07:41:10;;;;;;;24.95;12.40;;;;;;;10.66;60.68;102189.75;1691473;84;21039;-67
2021/10/06 07:43:37;;;;;;;;;;;;;;;10.98;60.31;102227.23;1693993;84;21017;-74
2021/10/06 07:46:03;;;;;;;67.60;17.30;;;;;;;10.99;60.48;102227.56;1677539;83;20112;-65
2021/10/06 07:48:32;;;;;;;42.37;13.87;;;;;;;10.95;60.49;102235.52;1681447;85;21458;-67
2021/10/06 07:50:58;;;;;;;49.18;15.65;;;;;;;10.98;60.27;102233.91;1670992;84;21474;-67
2021/10/06 07:53:25;;;;;;;100.55;26.25;;;;;;;11.09;60.04;102233.73;1671337;85;21802;-69
2021/10/06 07:55:51;;;;;;;77.12;24.70;;;;;;;11.27;59.28;102223.62;1675302;84;21517;-70
2021/10/06 07:58:17;;;;;;;46.37;15.03;;;;;;;11.38;58.92;102216.75;1690129;85;21363;-67
2021/10/06 08:00:43;;;;;;;40.95;14.55;;;;;;;11.53;58.79;102213.10;1673426;83;21898;-68
2021/10/06 08:03:09;;;;;;;36.35;12.25;;;;;;;11.71;58.63;102203.77;1664275;84;21633;-68
2021/10/06 08:05:35;;;;;;;37.60;12.15;;;;;;;11.88;58.08;102206.98;1663348;85;21002;-67
2021/10/06 08:08:02;;;;;;;39.50;13.60;;;;;;;12.06;57.11;102211.02;1659447;85;21143;-66
2021/10/06 08:10:28;;;;;;;17.80;8.20;;;;;;;12.15;56.24;102210.62;1663678;85;21049;-68
2021/10/06 08:12:54;;;;;;;;;;;;;;;12.20;55.45;102223.01;1670245;84;21532;-70
2021/10/06 08:15:20;;;;;;;23.42;9.25;;;;;;;12.19;55.17;102232.03;1666549;84;20116;-67
2021/10/06 08:17:47;;;;;;;46.45;12.98;;;;;;;12.08;55.15;102217.56;1697705;84;21031;-66
2021/10/06 08:20:13;;;;;;;72.50;19.35;;;;;;;12.04;55.46;102212.18;1702030;83;21054;-66
2021/10/06 08:22:40;;;;;;;52.60;19.15;;;;;;;12.11;55.16;102211.06;1663942;84;20975;-67
2021/10/06 08:25:07;;;;;;;38.73;13.72;;;;;;;12.13;54.99;102197.91;1638145;86;21079;-68
2021/10/06 08:27:35;;;;;;;23.32;9.73;;;;;;;12.19;55.27;102201.30;1638727;86;21026;-67
2021/10/06 08:30:01;;;;;;;20.48;8.45;;;;;;;12.32;54.77;102203.58;1656275;85;20943;-70
2021/10/06 08:32:27;;;;;;;;;;;;;;;12.44;54.13;102198.31;1647666;86;20986;-69
2021/10/06 08:34:54;;;;;;;20.12;8.90;;;;;;;12.55;53.28;102201.25;1696437;83;20196;-68
2021/10/06 08:37:20;;;;;;;44.27;14.05;;;;;;;12.55;52.34;102198.58;1685308;84;21533;-68
2021/10/06 08:39:46;;;;;;;19.67;8.78;;;;;;;12.62;52.82;102198.30;1632234;86;21551;-70
2021/10/06 08:42:13;;;;;;;24.55;8.28;;;;;;;12.71;52.35;102185.80;1693805;84;20984;-68
2021/10/06 08:44:46;;;;;;;22.58;9.28;;;;;;;12.79;51.18;102197.91;1698901;84;21036;-70
2021/10/06 08:47:14;;;;;;;10.23;5.55;;;;;;;12.83;51.22;102195.77;1694044;83;21010;-69
2021/10/06 08:49:43;;;;;;;7.42;5.72;;;;;;;12.84;50.63;102202.78;1697990;84;20957;-66
2021/10/06 08:52:10;;;;;;;23.85;8.50;;;;;;;12.90;50.59;102195.45;1691264;84;21610;-67
2021/10/06 08:54:37;;;;;;;31.00;9.13;;;;;;;12.95;49.77;102218.57;1655364;85;21075;-69
2021/10/06 08:57:04;;;;;;;58.00;14.87;;;;;;;12.93;49.15;102194.31;1660466;85;21023;-68
2021/10/06 08:59:31;;;;;;;24.72;8.68;;;;;;;12.98;49.52;102190.67;1629437;87;20989;-68
2021/10/06 09:02:13;;;;;;;19.02;7.40;;;;;;;13.04;49.41;102185.50;1610973;88;20986;-71
2021/10/06 09:04:41;;;;;;;10.35;4.87;;;;;;;13.12;48.21;102182.53;1605331;88;21012;-67
2021/10/06 09:07:09;;;;;;;6.70;5.05;;;;;;;13.10;48.30;102183.19;1606372;88;21096;-68
2021/10/06 09:09:38;;;;;;;48.85;12.30;;;;;;;13.11;48.03;102192.89;1644198;86;20994;-71
2021/10/06 09:12:16;;;;;;;21.57;6.05;;;;;;;13.11;48.59;102239.73;1654264;85;21004;-66
2021/10/06 09:14:46;;;;;;;56.37;14.43;;;;;;;13.13;46.73;102223.88;1640997;86;21003;-65
2021/10/06 09:17:18;;;;;;;21.05;7.25;;;;;;;13.11;46.75;102192.89;1605507;85;21098;-66
2021/10/06 09:19:49;;;;;;;24.32;6.62;;;;;;;13.12;46.30;102186.04;1642636;86;21064;-69
2021/10/06 09:22:20;;;;;;;49.50;12.23;;;;;;;13.10;45.75;102184.53;1644580;85;21335;-70
2021/10/06 09:24:54;;;;;;;12.55;4.45;;;;;;;13.14;46.34;102200.61;1634438;86;21002;-71
2021/10/06 09:27:27;;;;;;;32.98;11.12;;;;;;;13.14;45.28;102227.38;1622454;87;20961;-70
2021/10/06 09:29:57;;;;;;;18.55;6.30;;;;;;;13.18;45.32;102197.95;1633177;86;21004;-69
2021/10/06 09:32:36;;;;;;;25.90;7.00;;;;;;;13.16;45.46;102180.70;1628725;86;20971;-71
2021/10/06 09:35:25;;;;;;;14.93;5.05;;;;;;;13.21;45.56;102177.55;1610327;85;20987;-74
2021/10/06 09:37:55;;;;;;;28.87;9.83;;;;;;;13.27;45.16;102180.92;1676637;84;20972;-70
2021/10/06 09:40:30;;;;;;;26.35;7.50;;;;;;;13.32;45.84;102195.22;1676975;85;20991;-70
2021/10/06 09:42:59;;;;;;;23.05;6.35;;;;;;;13.36;45.63;102190.70;1674015;85;21058;-68
2021/10/06 09:45:35;;;;;;;6.45;4.05;;;;;;;13.45;42.94;102174.17;1655071;84;21119;-68
2021/10/06 09:48:14;;;;;;;16.70;4.58;;;;;;;13.46;43.11;102161.09;1637914;86;21014;-71
2021/10/06 09:50:49;;;;;;;9.10;4.85;;;;;;;13.52;43.57;102178.36;1638117;86;21486;-69
2021/10/06 09:53:23;;;;;;;15.55;3.85;;;;;;;13.62;43.08;102185.78;1641364;86;20958;-69
2021/10/06 09:55:52;;;;;;;8.68;3.08;;;;;;;13.64;41.72;102187.79;1657879;84;21578;-73
2021/10/06 09:58:20;;;;;;;4.22;3.22;;;;;;;13.59;41.11;102172.19;1677833;85;21034;-67
2021/10/06 10:00:49;;;;;;;4.53;3.25;;;;;;;13.60;41.46;102167.18;1666111;84;21574;-68
2021/10/06 10:03:15;;;;;;;5.78;3.15;;;;;;;13.63;41.33;102179.40;1606764;86;21007;-69
2021/10/06 10:05:42;;;;;;;6.80;4.20;;;;;;;13.66;42.06;102165.69;1641086;86;21100;-69
2021/10/06 10:08:09;;;;;;;5.50;3.27;;;;;;;13.68;42.37;102169.03;1659573;85;20975;-67
2021/10/06 10:10:37;;;;;;;17.60;5.25;;;;;;;13.68;41.62;102193.16;1651122;86;20994;-70
2021/10/06 10:13:06;;;;;;;36.88;7.55;;;;;;;13.67;41.92;102190.63;1663183;84;21417;-70
2021/10/06 10:15:34;;;;;;;49.15;11.95;;;;;;;13.61;38.25;102181.41;1673307;85;21481;-70
2021/10/06 10:18:04;;;;;;;32.25;7.08;;;;;;;13.64;39.12;102170.38;1678048;85;21054;-70
2021/10/06 10:20:35;;;;;;;29.90;7.30;;;;;;;13.69;39.35;102177.39;1674712;84;20993;-71
2021/10/06 10:23:04;;;;;;;26.25;6.60;;;;;;;13.65;38.72;102174.72;1676806;83;21011;-75
2021/10/06 10:25:35;;;;;;;4.95;2.42;;;;;;;13.71;39.01;102173.22;1669891;84;20951;-68
2021/10/06 10:28:20;;;;;;;2.77;2.12;;;;;;;13.68;37.15;102202.53;1685456;84;21060;-74
2021/10/06 10:31:00;;;;;;;7.42;3.37;;;;;;;13.67;37.37;102183.42;1692527;84;20977;-70
2021/10/06 10:33:49;;;;;;;10.20;3.55;;;;;;;13.68;38.30;102174.39;1679126;83;21501;-74
2021/10/06 10:36:39;;;;;;;13.15;4.35;;;;;;;13.70;38.67;102185.79;1694516;84;21764;-69
2021/10/06 10:39:42;;;;;;;13.58;3.75;;;;;;;13.75;38.58;102170.06;1684598;84;20984;-67
2021/10/06 10:42:08;;;;;;;30.77;8.38;;;;;;;13.81;38.27;102183.31;1687559;84;20937;-72
2021/10/06 10:44:41;;;;;;;19.17;5.47;;;;;;;13.82;38.48;102201.05;1695316;82;20991;-67
2021/10/06 10:47:09;;;;;;;7.55;3.22;;;;;;;13.75;39.08;102188.83;1691006;83;20973;-70
2021/10/06 10:49:52;;;;;;;11.05;4.17;;;;;;;13.63;39.03;102176.72;1691444;84;21472;-72
2021/10/06 10:52:39;;;;;;;30.80;8.45;;;;;;;13.50;39.37;102177.18;1693755;84;20973;-68
2021/10/06 10:55:07;;;;;;;5.45;2.65;;;;;;;13.40;39.90;102166.61;1678667;83;21901;-70
2021/10/06 10:57:34;;;;;;;5.55;2.25;;;;;;;13.36;40.06;102184.00;1646230;85;21115;-71
2021/10/06 11:00:00;;;;;;;2.27;2.08;;;;;;;13.38;39.87;102171.28;1657798;84;21901;-68
2021/10/06 11:02:39;;;;;;;2.85;2.33;;;;;;;13.41;39.81;102160.27;1660669;84;21015;-68
2021/10/06 11:05:07;;;;;;;3.55;2.70;;;;;;;13.36;39.96;102159.07;1662488;86;20989;-70
2021/10/06 11:07:50;;;;;;;8.23;2.98;;;;;;;13.35;40.06;102161.40;1667554;85;21480;-68
2021/10/06 11:10:18;;;;;;;7.97;2.83;;;;;;;13.38;40.34;102139.15;1668226;85;21020;-68
2021/10/06 11:13:03;;;;;;;2.45;2.25;;;;;;;13.46;40.31;102150.89;1688135;83;20992;-69
2021/10/06 11:15:26;;;;;;;3.25;2.70;;;;;;;13.47;40.00;102138.68;1668876;85;21024;-72
2021/10/06 11:18:16;;;;;;;3.92;1.95;;;;;;;13.49;39.88;102144.71;1669851;84;20988;-68
2021/10/06 11:20:58;;;;;;;5.00;1.92;;;;;;;13.55;39.72;102141.37;1668800;84;21464;-68
2021/10/06 11:23:33;;;;;;;9.25;1.70;;;;;;;13.63;39.01;102142.72;1651408;84;21497;-68
2021/10/06 11:26:07;;;;;;;6.87;2.02;;;;;;;13.69;38.37;102161.83;1627296;87;21085;-69